Maumee, Ohio
Current Conditions -  °F | °C
As of 7:52 PM on Sunday 23 Nov 2014 (Local Time) from KTOL Reporting Station
Moderate Rain Moderate Rain  
Wind Chill: 51°   Ceiling: 5000
Heat Index: 51°   Visibility: 5mi
Dew Point: 47°   Wind: 9mph
Humidity: 86%   Direction: 120°ESE
Pressure: 29.47"   Gusts: NA
Location:  41.56°N, 83.65°W
Report Text: KTOL 240052Z 12008KT 5SM RA BR FEW041 BKN050 OVC065 11/08 A2947 RMK AO2 SLP982 P0004 T01060083
Loading
Personal Weather Stations






























Interactive Weather Map New forecast layout! Learn more

10-Day Weather Forecast

Advertisements
Track Severe Weather on mobile